Nearby METAR Reports

 

KAVP - Avoca/Wilkes B., Pennsylvania, USA
Distance from station: N 16mi, 25km
Updated: 05/23/2024 2:54am
Mist, Clear
Mist, Clear
 Wind from calm
Wind: Calm
Temperature: 66°F, 19°C
Dew Point: 64°F, 18°C
Humidity: 94%
Barometer: 29.86 inHg, 1011.2 hPa
Summary: Mist
Clouds: Clear
Visibility: 6 miles, 10 km
2024/05/23 06:54 KAVP 230654Z 00000KT 6SM BR CLR 19/18 A2986 RMK AO2 SLP103 T01940178
KMPO - Mt. Pocono, Pennsylvania, USA
Distance from station: E 20mi, 33km
Updated: 05/23/2024 2:53am
Clear
Clear
 Wind from W
Wind: W 5 mph, 7 km/h
Temperature: 66°F, 19°C
Dew Point: 63°F, 17°C
Humidity: 88%
Barometer: 29.90 inHg, 1012.5 hPa
Clouds: Clear
Visibility: 10 miles, 16 km
2024/05/23 06:53 KMPO 230653Z AUTO 26004KT 10SM CLR 19/17 A2990 RMK AO2 SLP112 T01890172
 
KABE - Allentown, Pennsylvania, USA
Distance from station: SSE 36mi, 58km
Updated: 05/23/2024 2:51am
Clear
Clear
 Wind from calm
Wind: Calm
Temperature: 68°F, 20°C
Dew Point: 64°F, 18°C
Humidity: 88%
Barometer: 29.86 inHg, 1011.2 hPa
Clouds: Clear
Visibility: 10 miles, 16 km
2024/05/23 06:51 KABE 230651Z 00000KT 10SM CLR 20/18 A2986 RMK AO2 SLP108 T02000178
KXLL - Allentown Queen, Pennsylvania, USA
Distance from station: SSE 41mi, 65km
Updated: 05/23/2024 2:35am
Clear
Clear
 Wind from SSW
Wind: SSW 3 mph, 6 km/h
Temperature: 72°F, 22°C
Dew Point: 64°F, 18°C
Humidity: 78%
Barometer: 29.88 inHg, 1011.9 hPa
Clouds: Clear
Visibility: 10 miles, 16 km
2024/05/23 06:35 KXLL 230635Z AUTO 21003KT 10SM CLR 22/18 A2988 RMK AO2